ワシントン/ダレス の空港の天気 - METARとTAF

ワシントン・ダレス国際空港 ( KIAD / IAD ) - アメリカ バージニア州ダレス
飛行場実況気象(Metar)
観測時間05/28 06:52 EDT (05/28 10:52 UTC)
風向・風速静穏 0m/s
視程10km以上
天気現象
少しの雲 雲底高度 1980m
全天の4割程度の雲 雲底高度 3660m
全天の4割程度の雲 雲底高度 7620m
気温16.7℃
湿度96%
気圧1008.7hPa
METARKIAD 281052Z 00000KT 10SM FEW065 SCT120 SCT250 17/16 A2979 RMK AO2 SLP087 T01670161
過去の天気等 Google飛行場航空写真 Wunderground天気予報

過去48時間のMETAR

飛行場予報(TAF)
発表時間: 5/28 05:12 EDT (5/28 09:12 UTC)
予報対象時間: 28日5時 EDT ~ 29日8時 EDT
風向・風速南南西 2m/s
視程10km以上
全天の4割程度の雲 雲底高度 1520m
全天の8割程度の雲 雲底高度 2440m
28日8時 EDT から
風向・風速西 3m/s
視程10km以上
少しの雲 雲底高度 1520m
全天の8割程度の雲 雲底高度 3050m
28日11時 EDT から
風向・風速西北西 6m/s 瞬間風速 10m/s
視程10km以上
全天の4割程度の雲 雲底高度 1520m
全天の4割程度の雲 雲底高度 3660m
28日18時 EDT から
風向・風速西北西 4m/s
視程10km以上
全天の4割程度の雲 雲底高度 4570m
29日2時 EDT から
風向・風速静穏
視程10km以上
なし
KIAD 280912Z 2809/2912 21004KT P6SM SCT050 BKN080
FM281200 28006KT P6SM FEW050 BKN100
FM281500 30012G19KT P6SM SCT050 SCT120
FM282200 29007KT P6SM SCT150
FM290600 00000KT P6SM SKC